sensor_id;sensor_type;location;lat;lon;timestamp;P1;durP1;ratioP1;P2;durP2;ratioP2
2201;SDS011;1107;48.654;9.250;2023-01-13T00:00:33;1.50;;;0.60;;
2201;SDS011;1107;48.654;9.250;2023-01-13T00:03:02;1.30;;;0.50;;
2201;SDS011;1107;48.654;9.250;2023-01-13T00:05:29;1.40;;;0.67;;
2201;SDS011;1107;48.654;9.250;2023-01-13T00:07:56;1.40;;;0.70;;
2201;SDS011;1107;48.654;9.250;2023-01-13T00:10:23;3.10;;;1.23;;
2201;SDS011;1107;48.654;9.250;2023-01-13T00:12:50;1.37;;;0.60;;
2201;SDS011;1107;48.654;9.250;2023-01-13T00:15:17;1.33;;;0.70;;
2201;SDS011;1107;48.654;9.250;2023-01-13T00:17:46;1.27;;;0.53;;
2201;SDS011;1107;48.654;9.250;2023-01-13T00:20:13;1.30;;;0.60;;
2201;SDS011;1107;48.654;9.250;2023-01-13T00:22:40;1.53;;;0.73;;
2201;SDS011;1107;48.654;9.250;2023-01-13T00:25:07;1.57;;;0.70;;
2201;SDS011;1107;48.654;9.250;2023-01-13T00:27:34;1.50;;;0.90;;
2201;SDS011;1107;48.654;9.250;2023-01-13T00:30:01;2.20;;;0.70;;
2201;SDS011;1107;48.654;9.250;2023-01-13T00:32:29;1.40;;;0.70;;
2201;SDS011;1107;48.654;9.250;2023-01-13T00:34:58;1.40;;;0.80;;
2201;SDS011;1107;48.654;9.250;2023-01-13T00:37:25;1.87;;;0.60;;
2201;SDS011;1107;48.654;9.250;2023-01-13T00:39:53;1.70;;;0.67;;
2201;SDS011;1107;48.654;9.250;2023-01-13T00:42:21;1.93;;;1.10;;
2201;SDS011;1107;48.654;9.250;2023-01-13T00:45:06;1.40;;;0.70;;
2201;SDS011;1107;48.654;9.250;2023-01-13T00:47:33;1.30;;;0.70;;
2201;SDS011;1107;48.654;9.250;2023-01-13T00:50:02;1.40;;;0.70;;
2201;SDS011;1107;48.654;9.250;2023-01-13T00:52:30;1.33;;;0.77;;
2201;SDS011;1107;48.654;9.250;2023-01-13T00:54:57;1.60;;;0.60;;
2201;SDS011;1107;48.654;9.250;2023-01-13T00:57:25;1.40;;;0.80;;
2201;SDS011;1107;48.654;9.250;2023-01-13T00:59:52;1.60;;;0.60;;
2201;SDS011;1107;48.654;9.250;2023-01-13T01:02:18;3.03;;;0.77;;
2201;SDS011;1107;48.654;9.250;2023-01-13T01:04:45;3.00;;;0.60;;
2201;SDS011;1107;48.654;9.250;2023-01-13T01:07:14;1.80;;;0.67;;
2201;SDS011;1107;48.654;9.250;2023-01-13T01:09:41;1.30;;;0.60;;
2201;SDS011;1107;48.654;9.250;2023-01-13T01:12:07;1.53;;;0.73;;
2201;SDS011;1107;48.654;9.250;2023-01-13T01:14:34;1.33;;;0.70;;
2201;SDS011;1107;48.654;9.250;2023-01-13T01:17:01;1.80;;;0.57;;
2201;SDS011;1107;48.654;9.250;2023-01-13T01:19:28;2.03;;;0.60;;
2201;SDS011;1107;48.654;9.250;2023-01-13T01:21:55;1.40;;;0.50;;
2201;SDS011;1107;48.654;9.250;2023-01-13T01:24:24;1.40;;;0.60;;
2201;SDS011;1107;48.654;9.250;2023-01-13T01:26:51;2.03;;;0.70;;
2201;SDS011;1107;48.654;9.250;2023-01-13T01:29:18;3.53;;;0.70;;
2201;SDS011;1107;48.654;9.250;2023-01-13T01:31:44;2.50;;;0.90;;
2201;SDS011;1107;48.654;9.250;2023-01-13T01:34:11;2.63;;;0.60;;
2201;SDS011;1107;48.654;9.250;2023-01-13T01:36:38;1.97;;;0.80;;
2201;SDS011;1107;48.654;9.250;2023-01-13T01:39:05;1.40;;;0.70;;
2201;SDS011;1107;48.654;9.250;2023-01-13T01:41:34;2.37;;;1.07;;
2201;SDS011;1107;48.654;9.250;2023-01-13T01:44:04;1.40;;;0.73;;
2201;SDS011;1107;48.654;9.250;2023-01-13T01:46:34;1.90;;;0.73;;
2201;SDS011;1107;48.654;9.250;2023-01-13T01:49:07;2.77;;;0.53;;
2201;SDS011;1107;48.654;9.250;2023-01-13T01:51:38;1.60;;;0.90;;
2201;SDS011;1107;48.654;9.250;2023-01-13T01:54:10;1.30;;;0.80;;
2201;SDS011;1107;48.654;9.250;2023-01-13T01:56:42;1.30;;;0.80;;
2201;SDS011;1107;48.654;9.250;2023-01-13T01:59:10;4.67;;;1.00;;
2201;SDS011;1107;48.654;9.250;2023-01-13T02:01:38;1.40;;;0.80;;
2201;SDS011;1107;48.654;9.250;2023-01-13T02:04:08;1.40;;;0.60;;
2201;SDS011;1107;48.654;9.250;2023-01-13T02:06:39;1.30;;;0.70;;
2201;SDS011;1107;48.654;9.250;2023-01-13T02:09:07;1.60;;;0.60;;
2201;SDS011;1107;48.654;9.250;2023-01-13T02:11:35;1.37;;;0.70;;
2201;SDS011;1107;48.654;9.250;2023-01-13T02:14:21;3.63;;;0.63;;
2201;SDS011;1107;48.654;9.250;2023-01-13T02:16:53;1.87;;;0.80;;
2201;SDS011;1107;48.654;9.250;2023-01-13T02:19:45;10.83;;;0.73;;
2201;SDS011;1107;48.654;9.250;2023-01-13T02:22:40;1.27;;;0.53;;
2201;SDS011;1107;48.654;9.250;2023-01-13T02:28:24;1.30;;;0.60;;
2201;SDS011;1107;48.654;9.250;2023-01-13T02:31:28;1.40;;;0.80;;
2201;SDS011;1107;48.654;9.250;2023-01-13T02:34:08;1.20;;;0.57;;
2201;SDS011;1107;48.654;9.250;2023-01-13T02:36:42;1.37;;;0.73;;
2201;SDS011;1107;48.654;9.250;2023-01-13T02:39:16;1.57;;;1.20;;
2201;SDS011;1107;48.654;9.250;2023-01-13T02:41:51;1.37;;;0.70;;
2201;SDS011;1107;48.654;9.250;2023-01-13T02:44:50;2.07;;;0.90;;
2201;SDS011;1107;48.654;9.250;2023-01-13T02:47:23;1.73;;;0.70;;
2201;SDS011;1107;48.654;9.250;2023-01-13T02:49:52;1.40;;;0.80;;
2201;SDS011;1107;48.654;9.250;2023-01-13T02:52:24;1.40;;;0.87;;
2201;SDS011;1107;48.654;9.250;2023-01-13T02:54:56;5.50;;;1.07;;
2201;SDS011;1107;48.654;9.250;2023-01-13T02:57:27;1.67;;;0.80;;
2201;SDS011;1107;48.654;9.250;2023-01-13T02:59:58;1.37;;;0.60;;
2201;SDS011;1107;48.654;9.250;2023-01-13T03:02:27;1.60;;;0.70;;
2201;SDS011;1107;48.654;9.250;2023-01-13T03:04:55;1.43;;;0.90;;
2201;SDS011;1107;48.654;9.250;2023-01-13T03:10:23;1.40;;;0.77;;
2201;SDS011;1107;48.654;9.250;2023-01-13T03:12:59;1.50;;;0.70;;
2201;SDS011;1107;48.654;9.250;2023-01-13T03:15:37;1.33;;;0.57;;
2201;SDS011;1107;48.654;9.250;2023-01-13T03:18:18;1.33;;;0.80;;
2201;SDS011;1107;48.654;9.250;2023-01-13T03:20:55;1.87;;;0.67;;
2201;SDS011;1107;48.654;9.250;2023-01-13T03:23:31;1.30;;;0.60;;
2201;SDS011;1107;48.654;9.250;2023-01-13T03:26:03;1.40;;;0.63;;
2201;SDS011;1107;48.654;9.250;2023-01-13T03:28:35;3.50;;;0.83;;
2201;SDS011;1107;48.654;9.250;2023-01-13T03:31:08;1.50;;;0.57;;
2201;SDS011;1107;48.654;9.250;2023-01-13T03:33:41;1.40;;;0.70;;
2201;SDS011;1107;48.654;9.250;2023-01-13T03:36:12;1.90;;;0.80;;
2201;SDS011;1107;48.654;9.250;2023-01-13T03:38:42;1.70;;;0.80;;
2201;SDS011;1107;48.654;9.250;2023-01-13T03:41:13;1.43;;;0.70;;
2201;SDS011;1107;48.654;9.250;2023-01-13T03:43:46;2.50;;;0.77;;
2201;SDS011;1107;48.654;9.250;2023-01-13T03:46:37;1.33;;;0.63;;
2201;SDS011;1107;48.654;9.250;2023-01-13T03:49:11;2.30;;;0.70;;
2201;SDS011;1107;48.654;9.250;2023-01-13T03:51:42;3.23;;;0.70;;
2201;SDS011;1107;48.654;9.250;2023-01-13T03:54:13;1.53;;;0.80;;
2201;SDS011;1107;48.654;9.250;2023-01-13T03:56:44;1.87;;;0.60;;
2201;SDS011;1107;48.654;9.250;2023-01-13T03:59:15;1.50;;;0.70;;
2201;SDS011;1107;48.654;9.250;2023-01-13T04:01:45;1.30;;;0.63;;
2201;SDS011;1107;48.654;9.250;2023-01-13T04:04:19;1.77;;;0.77;;
2201;SDS011;1107;48.654;9.250;2023-01-13T04:06:50;1.40;;;0.70;;
2201;SDS011;1107;48.654;9.250;2023-01-13T04:09:22;1.27;;;0.57;;
2201;SDS011;1107;48.654;9.250;2023-01-13T04:11:57;1.27;;;0.60;;
2201;SDS011;1107;48.654;9.250;2023-01-13T04:14:28;1.30;;;0.60;;
2201;SDS011;1107;48.654;9.250;2023-01-13T04:16:56;3.00;;;0.70;;
2201;SDS011;1107;48.654;9.250;2023-01-13T04:19:24;4.50;;;0.80;;
2201;SDS011;1107;48.654;9.250;2023-01-13T04:21:51;1.43;;;0.70;;
2201;SDS011;1107;48.654;9.250;2023-01-13T04:24:18;3.63;;;0.73;;
2201;SDS011;1107;48.654;9.250;2023-01-13T04:26:45;1.30;;;0.57;;
2201;SDS011;1107;48.654;9.250;2023-01-13T04:29:12;2.03;;;0.70;;
2201;SDS011;1107;48.654;9.250;2023-01-13T04:31:39;1.40;;;0.60;;
2201;SDS011;1107;48.654;9.250;2023-01-13T04:34:06;2.33;;;0.50;;
2201;SDS011;1107;48.654;9.250;2023-01-13T04:36:36;1.30;;;0.70;;
2201;SDS011;1107;48.654;9.250;2023-01-13T04:39:03;1.30;;;0.60;;
2201;SDS011;1107;48.654;9.250;2023-01-13T04:41:30;1.50;;;0.63;;
2201;SDS011;1107;48.654;9.250;2023-01-13T04:44:17;1.50;;;0.70;;
2201;SDS011;1107;48.654;9.250;2023-01-13T04:46:54;1.90;;;0.63;;
2201;SDS011;1107;48.654;9.250;2023-01-13T04:49:21;1.50;;;0.70;;
2201;SDS011;1107;48.654;9.250;2023-01-13T04:51:49;1.50;;;0.60;;
2201;SDS011;1107;48.654;9.250;2023-01-13T04:54:16;2.70;;;0.80;;
2201;SDS011;1107;48.654;9.250;2023-01-13T04:56:43;1.27;;;0.53;;
2201;SDS011;1107;48.654;9.250;2023-01-13T04:59:11;1.30;;;0.60;;
2201;SDS011;1107;48.654;9.250;2023-01-13T05:01:39;1.20;;;0.60;;
2201;SDS011;1107;48.654;9.250;2023-01-13T05:04:06;1.30;;;0.60;;
2201;SDS011;1107;48.654;9.250;2023-01-13T05:06:33;1.77;;;0.60;;
2201;SDS011;1107;48.654;9.250;2023-01-13T05:09:02;2.00;;;0.70;;
2201;SDS011;1107;48.654;9.250;2023-01-13T05:11:29;1.30;;;0.70;;
2201;SDS011;1107;48.654;9.250;2023-01-13T05:14:13;1.23;;;0.53;;
2201;SDS011;1107;48.654;9.250;2023-01-13T05:16:57;1.70;;;0.80;;
2201;SDS011;1107;48.654;9.250;2023-01-13T05:19:28;1.30;;;0.50;;
2201;SDS011;1107;48.654;9.250;2023-01-13T05:21:55;1.33;;;0.63;;
2201;SDS011;1107;48.654;9.250;2023-01-13T05:24:41;1.97;;;0.60;;
2201;SDS011;1107;48.654;9.250;2023-01-13T05:27:26;1.33;;;0.70;;
2201;SDS011;1107;48.654;9.250;2023-01-13T05:29:53;1.30;;;0.60;;
2201;SDS011;1107;48.654;9.250;2023-01-13T05:32:21;1.40;;;0.60;;
2201;SDS011;1107;48.654;9.250;2023-01-13T05:34:48;1.30;;;0.60;;
2201;SDS011;1107;48.654;9.250;2023-01-13T05:37:16;1.20;;;0.60;;
2201;SDS011;1107;48.654;9.250;2023-01-13T05:39:44;1.70;;;0.70;;
2201;SDS011;1107;48.654;9.250;2023-01-13T05:42:28;1.30;;;0.60;;
2201;SDS011;1107;48.654;9.250;2023-01-13T05:45:13;1.30;;;0.80;;
2201;SDS011;1107;48.654;9.250;2023-01-13T05:47:40;5.30;;;0.50;;
2201;SDS011;1107;48.654;9.250;2023-01-13T05:50:07;1.30;;;0.50;;
2201;SDS011;1107;48.654;9.250;2023-01-13T05:52:35;1.30;;;0.57;;
2201;SDS011;1107;48.654;9.250;2023-01-13T05:55:04;1.37;;;0.70;;
2201;SDS011;1107;48.654;9.250;2023-01-13T05:57:32;1.40;;;0.50;;
2201;SDS011;1107;48.654;9.250;2023-01-13T05:59:59;1.30;;;0.60;;
2201;SDS011;1107;48.654;9.250;2023-01-13T06:02:26;2.37;;;0.83;;
2201;SDS011;1107;48.654;9.250;2023-01-13T06:04:53;1.20;;;0.50;;
2201;SDS011;1107;48.654;9.250;2023-01-13T06:07:20;1.20;;;0.50;;
2201;SDS011;1107;48.654;9.250;2023-01-13T06:09:47;1.20;;;0.53;;
2201;SDS011;1107;48.654;9.250;2023-01-13T06:12:15;2.90;;;0.60;;
2201;SDS011;1107;48.654;9.250;2023-01-13T06:14:42;1.20;;;0.50;;
2201;SDS011;1107;48.654;9.250;2023-01-13T06:17:10;2.07;;;0.50;;
2201;SDS011;1107;48.654;9.250;2023-01-13T06:19:39;1.77;;;0.60;;
2201;SDS011;1107;48.654;9.250;2023-01-13T06:22:09;1.37;;;0.53;;
2201;SDS011;1107;48.654;9.250;2023-01-13T06:24:38;1.20;;;0.40;;
2201;SDS011;1107;48.654;9.250;2023-01-13T06:27:05;1.20;;;0.40;;
2201;SDS011;1107;48.654;9.250;2023-01-13T06:29:35;1.30;;;0.60;;
2201;SDS011;1107;48.654;9.250;2023-01-13T06:32:02;2.37;;;0.63;;
2201;SDS011;1107;48.654;9.250;2023-01-13T06:34:32;1.20;;;0.40;;
2201;SDS011;1107;48.654;9.250;2023-01-13T06:37:00;1.20;;;0.50;;
2201;SDS011;1107;48.654;9.250;2023-01-13T06:39:28;1.20;;;0.60;;
2201;SDS011;1107;48.654;9.250;2023-01-13T06:41:56;1.27;;;0.50;;
2201;SDS011;1107;48.654;9.250;2023-01-13T06:44:43;1.30;;;0.60;;
2201;SDS011;1107;48.654;9.250;2023-01-13T06:47:11;1.20;;;0.40;;
2201;SDS011;1107;48.654;9.250;2023-01-13T06:49:38;2.80;;;0.60;;
2201;SDS011;1107;48.654;9.250;2023-01-13T06:52:05;1.30;;;0.60;;
2201;SDS011;1107;48.654;9.250;2023-01-13T06:54:32;1.23;;;0.60;;
2201;SDS011;1107;48.654;9.250;2023-01-13T06:56:59;1.20;;;0.50;;
2201;SDS011;1107;48.654;9.250;2023-01-13T06:59:27;1.40;;;0.70;;
2201;SDS011;1107;48.654;9.250;2023-01-13T07:01:55;1.30;;;0.57;;
2201;SDS011;1107;48.654;9.250;2023-01-13T07:04:22;1.30;;;0.67;;
2201;SDS011;1107;48.654;9.250;2023-01-13T07:06:49;1.30;;;0.70;;
2201;SDS011;1107;48.654;9.250;2023-01-13T07:09:16;1.30;;;0.50;;
2201;SDS011;1107;48.654;9.250;2023-01-13T07:11:43;1.30;;;0.70;;
2201;SDS011;1107;48.654;9.250;2023-01-13T07:14:10;1.50;;;0.80;;
2201;SDS011;1107;48.654;9.250;2023-01-13T07:16:56;1.40;;;0.63;;
2201;SDS011;1107;48.654;9.250;2023-01-13T07:19:23;1.40;;;0.60;;
2201;SDS011;1107;48.654;9.250;2023-01-13T07:21:50;1.20;;;0.50;;
2201;SDS011;1107;48.654;9.250;2023-01-13T07:24:17;1.27;;;0.67;;
2201;SDS011;1107;48.654;9.250;2023-01-13T07:26:44;1.20;;;0.50;;
2201;SDS011;1107;48.654;9.250;2023-01-13T07:29:11;5.80;;;0.70;;
2201;SDS011;1107;48.654;9.250;2023-01-13T07:31:38;1.40;;;0.80;;
2201;SDS011;1107;48.654;9.250;2023-01-13T07:34:07;1.70;;;1.60;;
2201;SDS011;1107;48.654;9.250;2023-01-13T07:36:34;1.50;;;1.13;;
2201;SDS011;1107;48.654;9.250;2023-01-13T07:39:02;1.50;;;0.70;;
2201;SDS011;1107;48.654;9.250;2023-01-13T07:41:29;1.30;;;0.60;;
2201;SDS011;1107;48.654;9.250;2023-01-13T07:44:13;1.27;;;0.57;;
2201;SDS011;1107;48.654;9.250;2023-01-13T07:46:40;1.33;;;0.70;;
2201;SDS011;1107;48.654;9.250;2023-01-13T07:49:09;1.50;;;0.70;;
2201;SDS011;1107;48.654;9.250;2023-01-13T07:51:37;1.30;;;0.63;;
2201;SDS011;1107;48.654;9.250;2023-01-13T07:54:04;1.30;;;0.60;;
2201;SDS011;1107;48.654;9.250;2023-01-13T07:56:32;1.20;;;0.40;;
2201;SDS011;1107;48.654;9.250;2023-01-13T07:58:59;1.30;;;0.60;;
2201;SDS011;1107;48.654;9.250;2023-01-13T08:01:26;1.30;;;0.60;;
2201;SDS011;1107;48.654;9.250;2023-01-13T08:03:53;1.27;;;0.50;;
2201;SDS011;1107;48.654;9.250;2023-01-13T08:06:23;1.40;;;0.70;;
2201;SDS011;1107;48.654;9.250;2023-01-13T08:08:51;1.30;;;0.60;;
2201;SDS011;1107;48.654;9.250;2023-01-13T08:11:18;1.47;;;0.63;;
2201;SDS011;1107;48.654;9.250;2023-01-13T08:13:45;1.43;;;0.50;;
2201;SDS011;1107;48.654;9.250;2023-01-13T08:16:13;1.27;;;0.53;;
2201;SDS011;1107;48.654;9.250;2023-01-13T08:18:40;1.20;;;0.60;;
2201;SDS011;1107;48.654;9.250;2023-01-13T08:21:09;1.77;;;1.20;;
2201;SDS011;1107;48.654;9.250;2023-01-13T08:23:38;1.43;;;0.87;;
2201;SDS011;1107;48.654;9.250;2023-01-13T08:26:06;1.53;;;0.83;;
2201;SDS011;1107;48.654;9.250;2023-01-13T08:28:34;1.67;;;1.33;;
2201;SDS011;1107;48.654;9.250;2023-01-13T08:31:02;1.23;;;0.50;;
2201;SDS011;1107;48.654;9.250;2023-01-13T08:33:31;1.20;;;0.60;;
2201;SDS011;1107;48.654;9.250;2023-01-13T08:36:01;1.30;;;0.60;;
2201;SDS011;1107;48.654;9.250;2023-01-13T08:38:28;1.30;;;0.60;;
2201;SDS011;1107;48.654;9.250;2023-01-13T08:40:57;1.40;;;0.60;;
2201;SDS011;1107;48.654;9.250;2023-01-13T08:43:24;1.50;;;1.10;;
2201;SDS011;1107;48.654;9.250;2023-01-13T08:45:55;1.30;;;0.60;;
2201;SDS011;1107;48.654;9.250;2023-01-13T08:48:23;1.40;;;0.70;;
2201;SDS011;1107;48.654;9.250;2023-01-13T08:50:50;1.30;;;0.60;;
2201;SDS011;1107;48.654;9.250;2023-01-13T08:53:18;9.23;;;0.60;;
2201;SDS011;1107;48.654;9.250;2023-01-13T08:55:45;1.30;;;0.60;;
2201;SDS011;1107;48.654;9.250;2023-01-13T08:58:14;3.00;;;0.97;;
2201;SDS011;1107;48.654;9.250;2023-01-13T09:00:41;1.77;;;1.43;;
2201;SDS011;1107;48.654;9.250;2023-01-13T09:03:09;1.30;;;0.73;;
2201;SDS011;1107;48.654;9.250;2023-01-13T09:05:36;1.30;;;0.77;;
2201;SDS011;1107;48.654;9.250;2023-01-13T09:08:03;1.30;;;0.60;;
2201;SDS011;1107;48.654;9.250;2023-01-13T09:10:30;1.40;;;0.87;;
2201;SDS011;1107;48.654;9.250;2023-01-13T09:12:57;1.30;;;0.70;;
2201;SDS011;1107;48.654;9.250;2023-01-13T09:15:37;1.50;;;0.63;;
2201;SDS011;1107;48.654;9.250;2023-01-13T09:18:04;1.40;;;0.70;;
2201;SDS011;1107;48.654;9.250;2023-01-13T09:20:31;1.60;;;1.50;;
2201;SDS011;1107;48.654;9.250;2023-01-13T09:22:58;1.40;;;0.90;;
2201;SDS011;1107;48.654;9.250;2023-01-13T09:25:25;2.37;;;0.97;;
2201;SDS011;1107;48.654;9.250;2023-01-13T09:27:52;1.70;;;1.20;;
2201;SDS011;1107;48.654;9.250;2023-01-13T09:30:19;1.53;;;1.13;;
2201;SDS011;1107;48.654;9.250;2023-01-13T09:32:48;1.40;;;0.97;;
2201;SDS011;1107;48.654;9.250;2023-01-13T09:35:35;1.30;;;0.73;;
2201;SDS011;1107;48.654;9.250;2023-01-13T09:38:00;1.50;;;0.83;;
2201;SDS011;1107;48.654;9.250;2023-01-13T09:40:27;1.60;;;1.20;;
2201;SDS011;1107;48.654;9.250;2023-01-13T09:42:55;1.50;;;1.03;;
2201;SDS011;1107;48.654;9.250;2023-01-13T09:45:45;5.80;;;1.60;;
2201;SDS011;1107;48.654;9.250;2023-01-13T09:48:18;1.57;;;1.47;;
2201;SDS011;1107;48.654;9.250;2023-01-13T09:50:53;1.67;;;1.57;;
2201;SDS011;1107;48.654;9.250;2023-01-13T09:53:28;4.90;;;1.50;;
2201;SDS011;1107;48.654;9.250;2023-01-13T09:55:57;1.80;;;1.23;;
2201;SDS011;1107;48.654;9.250;2023-01-13T09:58:25;2.23;;;2.00;;
2201;SDS011;1107;48.654;9.250;2023-01-13T10:00:57;1.40;;;0.80;;
2201;SDS011;1107;48.654;9.250;2023-01-13T10:03:33;1.27;;;0.70;;
2201;SDS011;1107;48.654;9.250;2023-01-13T10:06:02;1.30;;;0.80;;
2201;SDS011;1107;48.654;9.250;2023-01-13T10:08:36;1.30;;;0.53;;
2201;SDS011;1107;48.654;9.250;2023-01-13T10:11:05;1.53;;;1.37;;
2201;SDS011;1107;48.654;9.250;2023-01-13T10:13:54;1.50;;;0.90;;
2201;SDS011;1107;48.654;9.250;2023-01-13T10:16:26;1.30;;;0.60;;
2201;SDS011;1107;48.654;9.250;2023-01-13T10:19:08;1.70;;;1.60;;
2201;SDS011;1107;48.654;9.250;2023-01-13T10:21:46;1.47;;;0.80;;
2201;SDS011;1107;48.654;9.250;2023-01-13T10:24:34;1.30;;;0.70;;
2201;SDS011;1107;48.654;9.250;2023-01-13T10:27:13;1.40;;;0.87;;
2201;SDS011;1107;48.654;9.250;2023-01-13T10:29:48;1.40;;;0.97;;
2201;SDS011;1107;48.654;9.250;2023-01-13T10:32:15;1.57;;;1.23;;
2201;SDS011;1107;48.654;9.250;2023-01-13T10:34:47;1.83;;;0.93;;
2201;SDS011;1107;48.654;9.250;2023-01-13T10:37:19;1.40;;;0.90;;
2201;SDS011;1107;48.654;9.250;2023-01-13T10:39:48;2.23;;;0.90;;
2201;SDS011;1107;48.654;9.250;2023-01-13T10:42:19;2.40;;;2.20;;
2201;SDS011;1107;48.654;9.250;2023-01-13T10:44:49;1.40;;;1.00;;
2201;SDS011;1107;48.654;9.250;2023-01-13T10:47:27;1.73;;;1.60;;
2201;SDS011;1107;48.654;9.250;2023-01-13T10:50:18;1.53;;;1.17;;
2201;SDS011;1107;48.654;9.250;2023-01-13T10:52:56;1.50;;;1.40;;
2201;SDS011;1107;48.654;9.250;2023-01-13T10:55:26;1.50;;;1.23;;
2201;SDS011;1107;48.654;9.250;2023-01-13T10:57:56;1.40;;;0.70;;
2201;SDS011;1107;48.654;9.250;2023-01-13T11:00:33;1.50;;;0.70;;
2201;SDS011;1107;48.654;9.250;2023-01-13T11:05:48;1.40;;;0.87;;
2201;SDS011;1107;48.654;9.250;2023-01-13T11:08:17;1.40;;;0.80;;
2201;SDS011;1107;48.654;9.250;2023-01-13T11:10:46;1.50;;;0.80;;
2201;SDS011;1107;48.654;9.250;2023-01-13T11:13:16;1.30;;;0.70;;
2201;SDS011;1107;48.654;9.250;2023-01-13T11:15:46;1.40;;;0.87;;
2201;SDS011;1107;48.654;9.250;2023-01-13T11:18:22;1.30;;;0.60;;
2201;SDS011;1107;48.654;9.250;2023-01-13T11:20:55;1.30;;;0.60;;
2201;SDS011;1107;48.654;9.250;2023-01-13T11:23:28;1.50;;;1.20;;
2201;SDS011;1107;48.654;9.250;2023-01-13T11:26:00;1.60;;;1.00;;
2201;SDS011;1107;48.654;9.250;2023-01-13T11:28:34;1.33;;;0.73;;
2201;SDS011;1107;48.654;9.250;2023-01-13T11:31:09;1.67;;;1.27;;
2201;SDS011;1107;48.654;9.250;2023-01-13T11:33:41;3.33;;;1.00;;
2201;SDS011;1107;48.654;9.250;2023-01-13T11:36:14;1.40;;;0.90;;
2201;SDS011;1107;48.654;9.250;2023-01-13T11:38:46;1.40;;;0.70;;
2201;SDS011;1107;48.654;9.250;2023-01-13T11:41:19;1.67;;;1.37;;
2201;SDS011;1107;48.654;9.250;2023-01-13T11:43:53;2.20;;;1.47;;
2201;SDS011;1107;48.654;9.250;2023-01-13T11:46:25;1.80;;;0.80;;
2201;SDS011;1107;48.654;9.250;2023-01-13T11:48:53;1.40;;;1.10;;
2201;SDS011;1107;48.654;9.250;2023-01-13T11:51:25;1.33;;;0.80;;
2201;SDS011;1107;48.654;9.250;2023-01-13T11:56:58;1.30;;;0.70;;
2201;SDS011;1107;48.654;9.250;2023-01-13T11:59:52;2.47;;;1.27;;
2201;SDS011;1107;48.654;9.250;2023-01-13T12:02:56;1.77;;;1.67;;
2201;SDS011;1107;48.654;9.250;2023-01-13T12:05:50;1.40;;;0.90;;
2201;SDS011;1107;48.654;9.250;2023-01-13T12:08:35;2.27;;;1.30;;
2201;SDS011;1107;48.654;9.250;2023-01-13T12:11:20;1.30;;;0.60;;
2201;SDS011;1107;48.654;9.250;2023-01-13T12:13:58;2.35;;;0.70;;
2201;SDS011;1107;48.654;9.250;2023-01-13T12:16:41;1.20;;;0.80;;
2201;SDS011;1107;48.654;9.250;2023-01-13T12:19:18;1.20;;;0.60;;
2201;SDS011;1107;48.654;9.250;2023-01-13T12:24:38;1.30;;;0.73;;
2201;SDS011;1107;48.654;9.250;2023-01-13T12:27:12;1.85;;;0.75;;
2201;SDS011;1107;48.654;9.250;2023-01-13T12:29:43;1.40;;;0.80;;
2201;SDS011;1107;48.654;9.250;2023-01-13T12:32:12;1.40;;;0.90;;
2201;SDS011;1107;48.654;9.250;2023-01-13T12:34:49;1.50;;;1.10;;
2201;SDS011;1107;48.654;9.250;2023-01-13T12:37:24;1.50;;;1.10;;
2201;SDS011;1107;48.654;9.250;2023-01-13T12:40:00;1.80;;;1.53;;
2201;SDS011;1107;48.654;9.250;2023-01-13T12:42:40;1.50;;;0.83;;
2201;SDS011;1107;48.654;9.250;2023-01-13T12:45:29;2.40;;;1.37;;
2201;SDS011;1107;48.654;9.250;2023-01-13T12:47:58;1.43;;;0.83;;
2201;SDS011;1107;48.654;9.250;2023-01-13T12:50:36;1.90;;;1.10;;
2201;SDS011;1107;48.654;9.250;2023-01-13T13:04:55;2.23;;;1.13;;
2201;SDS011;1107;48.654;9.250;2023-01-13T13:07:25;1.43;;;0.90;;
2201;SDS011;1107;48.654;9.250;2023-01-13T13:10:01;1.70;;;1.07;;
2201;SDS011;1107;48.654;9.250;2023-01-13T13:15:40;1.70;;;0.87;;
2201;SDS011;1107;48.654;9.250;2023-01-13T13:21:03;6.80;;;1.10;;
2201;SDS011;1107;48.654;9.250;2023-01-13T13:23:37;1.87;;;1.00;;
2201;SDS011;1107;48.654;9.250;2023-01-13T13:26:21;2.13;;;0.90;;
2201;SDS011;1107;48.654;9.250;2023-01-13T13:32:14;1.90;;;1.10;;
2201;SDS011;1107;48.654;9.250;2023-01-13T13:35:02;1.43;;;1.00;;
2201;SDS011;1107;48.654;9.250;2023-01-13T13:37:50;6.17;;;1.00;;
2201;SDS011;1107;48.654;9.250;2023-01-13T13:40:43;1.40;;;0.90;;
2201;SDS011;1107;48.654;9.250;2023-01-13T13:43:29;1.70;;;1.00;;
2201;SDS011;1107;48.654;9.250;2023-01-13T13:46:26;4.83;;;1.20;;
2201;SDS011;1107;48.654;9.250;2023-01-13T13:49:13;6.70;;;1.93;;
2201;SDS011;1107;48.654;9.250;2023-01-13T13:51:42;1.57;;;1.20;;
2201;SDS011;1107;48.654;9.250;2023-01-13T13:54:14;2.63;;;1.80;;
2201;SDS011;1107;48.654;9.250;2023-01-13T13:56:44;4.17;;;1.33;;
2201;SDS011;1107;48.654;9.250;2023-01-13T13:59:15;2.87;;;1.80;;
2201;SDS011;1107;48.654;9.250;2023-01-13T14:01:49;2.67;;;1.33;;
2201;SDS011;1107;48.654;9.250;2023-01-13T14:04:24;3.27;;;1.87;;
2201;SDS011;1107;48.654;9.250;2023-01-13T14:06:54;2.10;;;1.20;;
2201;SDS011;1107;48.654;9.250;2023-01-13T14:09:23;1.60;;;0.90;;
2201;SDS011;1107;48.654;9.250;2023-01-13T14:11:56;2.33;;;0.90;;
2201;SDS011;1107;48.654;9.250;2023-01-13T14:14:24;2.10;;;0.87;;
2201;SDS011;1107;48.654;9.250;2023-01-13T14:16:53;3.60;;;1.10;;
2201;SDS011;1107;48.654;9.250;2023-01-13T14:19:28;3.30;;;1.10;;
2201;SDS011;1107;48.654;9.250;2023-01-13T14:21:57;2.27;;;0.90;;
2201;SDS011;1107;48.654;9.250;2023-01-13T14:24:25;2.03;;;1.00;;
2201;SDS011;1107;48.654;9.250;2023-01-13T14:27:05;2.10;;;1.00;;
2201;SDS011;1107;48.654;9.250;2023-01-13T14:29:33;3.40;;;0.70;;
2201;SDS011;1107;48.654;9.250;2023-01-13T14:32:02;1.30;;;0.60;;
2201;SDS011;1107;48.654;9.250;2023-01-13T14:34:31;2.43;;;0.90;;
2201;SDS011;1107;48.654;9.250;2023-01-13T14:36:59;1.70;;;1.00;;
2201;SDS011;1107;48.654;9.250;2023-01-13T14:39:34;3.40;;;1.13;;
2201;SDS011;1107;48.654;9.250;2023-01-13T14:42:02;3.10;;;1.97;;
2201;SDS011;1107;48.654;9.250;2023-01-13T14:44:30;2.37;;;0.80;;
2201;SDS011;1107;48.654;9.250;2023-01-13T14:46:59;1.60;;;0.80;;
2201;SDS011;1107;48.654;9.250;2023-01-13T14:49:31;3.00;;;1.17;;
2201;SDS011;1107;48.654;9.250;2023-01-13T14:52:06;3.30;;;1.10;;
2201;SDS011;1107;48.654;9.250;2023-01-13T14:54:44;2.03;;;0.90;;
2201;SDS011;1107;48.654;9.250;2023-01-13T14:57:23;1.57;;;1.10;;
2201;SDS011;1107;48.654;9.250;2023-01-13T14:59:55;1.50;;;1.03;;
2201;SDS011;1107;48.654;9.250;2023-01-13T15:02:37;1.60;;;1.10;;
2201;SDS011;1107;48.654;9.250;2023-01-13T15:10:53;5.63;;;1.90;;
2201;SDS011;1107;48.654;9.250;2023-01-13T15:13:24;2.17;;;1.70;;
2201;SDS011;1107;48.654;9.250;2023-01-13T15:16:00;1.70;;;1.17;;
2201;SDS011;1107;48.654;9.250;2023-01-13T15:18:30;3.10;;;1.13;;
2201;SDS011;1107;48.654;9.250;2023-01-13T15:20:58;4.47;;;2.80;;
2201;SDS011;1107;48.654;9.250;2023-01-13T15:23:25;1.90;;;1.00;;
2201;SDS011;1107;48.654;9.250;2023-01-13T15:25:52;2.07;;;0.93;;
2201;SDS011;1107;48.654;9.250;2023-01-13T15:28:20;1.57;;;1.07;;
2201;SDS011;1107;48.654;9.250;2023-01-13T15:30:49;3.80;;;2.20;;
2201;SDS011;1107;48.654;9.250;2023-01-13T15:33:17;1.70;;;1.47;;
2201;SDS011;1107;48.654;9.250;2023-01-13T15:35:46;3.60;;;1.30;;
2201;SDS011;1107;48.654;9.250;2023-01-13T15:38:16;2.80;;;1.63;;
2201;SDS011;1107;48.654;9.250;2023-01-13T15:40:45;2.87;;;0.83;;
2201;SDS011;1107;48.654;9.250;2023-01-13T15:43:13;3.50;;;3.00;;
2201;SDS011;1107;48.654;9.250;2023-01-13T15:45:59;3.70;;;1.50;;
2201;SDS011;1107;48.654;9.250;2023-01-13T15:48:45;1.70;;;1.37;;
2201;SDS011;1107;48.654;9.250;2023-01-13T15:51:13;3.20;;;2.33;;
2201;SDS011;1107;48.654;9.250;2023-01-13T15:53:40;3.40;;;2.90;;
2201;SDS011;1107;48.654;9.250;2023-01-13T15:56:10;1.60;;;1.10;;
2201;SDS011;1107;48.654;9.250;2023-01-13T15:58:39;1.88;;;1.05;;
2201;SDS011;1107;48.654;9.250;2023-01-13T16:01:07;2.10;;;1.60;;
2201;SDS011;1107;48.654;9.250;2023-01-13T16:03:36;2.83;;;1.60;;
2201;SDS011;1107;48.654;9.250;2023-01-13T16:06:04;2.72;;;2.53;;
2201;SDS011;1107;48.654;9.250;2023-01-13T16:08:37;2.90;;;1.73;;
2201;SDS011;1107;48.654;9.250;2023-01-13T16:11:04;2.30;;;2.00;;
2201;SDS011;1107;48.654;9.250;2023-01-13T16:13:31;4.78;;;3.67;;
2201;SDS011;1107;48.654;9.250;2023-01-13T16:15:58;2.50;;;2.15;;
2201;SDS011;1107;48.654;9.250;2023-01-13T16:18:25;23.17;;;3.63;;
2201;SDS011;1107;48.654;9.250;2023-01-13T16:20:52;3.13;;;2.63;;
2201;SDS011;1107;48.654;9.250;2023-01-13T16:23:19;6.43;;;2.50;;